createdAt,value
2023-02-12T00:01:28.803Z,4.77
2023-02-12T00:03:56.507Z,3.43
2023-02-12T00:06:24.155Z,3.93
2023-02-12T00:08:52.994Z,4.03
2023-02-12T00:11:25.535Z,4.37
2023-02-12T00:13:53.288Z,3.43
2023-02-12T00:16:23.582Z,3.73
2023-02-12T00:18:55.532Z,4.87
2023-02-12T00:21:23.512Z,3.90
2023-02-12T00:23:50.649Z,2.50
2023-02-12T00:26:20.187Z,2.50
2023-02-12T00:28:49.944Z,3.03
2023-02-12T00:31:21.705Z,2.40
2023-02-12T00:33:48.840Z,2.83
2023-02-12T00:36:19.985Z,1.57
2023-02-12T00:38:48.151Z,1.33
2023-02-12T00:41:15.698Z,1.23
2023-02-12T00:43:42.689Z,1.13
2023-02-12T00:46:10.096Z,2.80
2023-02-12T00:48:37.181Z,2.93
2023-02-12T00:51:05.188Z,1.53
2023-02-12T00:53:32.704Z,1.80
2023-02-12T00:56:00.556Z,1.20
2023-02-12T00:58:27.965Z,2.43
2023-02-12T01:00:55.329Z,1.73
2023-02-12T01:03:23.918Z,1.97
2023-02-12T01:05:53.442Z,0.70
2023-02-12T01:08:21.532Z,1.67
2023-02-12T01:10:59.039Z,1.57
2023-02-12T01:13:26.941Z,1.20
2023-02-12T01:16:22.606Z,1.10
2023-02-12T01:18:54.422Z,1.10
2023-02-12T01:21:26.418Z,9.00
2023-02-12T01:23:55.417Z,1.90
2023-02-12T01:26:23.621Z,3.60
2023-02-12T01:28:56.513Z,3.00
2023-02-12T01:31:26.033Z,3.90
2023-02-12T01:33:55.372Z,2.07
2023-02-12T01:36:23.543Z,1.70
2023-02-12T01:38:51.080Z,1.60
2023-02-12T01:41:22.172Z,1.37
2023-02-12T01:44:06.131Z,0.90
2023-02-12T01:46:34.159Z,0.93
2023-02-12T01:49:02.271Z,3.07
2023-02-12T01:51:30.187Z,1.20
2023-02-12T01:54:00.849Z,2.30
2023-02-12T01:56:29.164Z,2.10
2023-02-12T01:58:57.826Z,2.00
2023-02-12T02:01:28.871Z,1.87
2023-02-12T02:03:59.906Z,1.30
2023-02-12T02:06:32.104Z,1.80
2023-02-12T02:09:01.286Z,2.73
2023-02-12T02:11:47.692Z,1.20
2023-02-12T02:14:32.679Z,2.77
2023-02-12T02:17:05.085Z,3.10
2023-02-12T02:19:41.150Z,2.03
2023-02-12T02:22:14.466Z,1.67
2023-02-12T02:25:03.509Z,1.30
2023-02-12T02:27:34.369Z,2.33
2023-02-12T02:30:22.890Z,1.93
2023-02-12T02:33:24.605Z,1.87
2023-02-12T02:36:13.152Z,1.80
2023-02-12T02:38:49.861Z,1.93
2023-02-12T02:41:20.497Z,2.40
2023-02-12T02:43:50.616Z,1.60
2023-02-12T02:46:45.420Z,1.57
2023-02-12T02:49:23.412Z,2.37
2023-02-12T02:51:55.009Z,2.40
2023-02-12T02:54:27.988Z,2.33
2023-02-12T02:57:00.540Z,1.90
2023-02-12T02:59:31.854Z,3.77
2023-02-12T03:02:07.597Z,1.57
2023-02-12T03:04:42.639Z,3.93
2023-02-12T03:07:28.689Z,4.50
2023-02-12T03:10:06.983Z,1.80
2023-02-12T03:12:41.873Z,2.07
2023-02-12T03:15:14.520Z,2.83
2023-02-12T03:17:44.840Z,1.90
2023-02-12T03:20:33.992Z,2.00
2023-02-12T03:23:12.130Z,3.93
2023-02-12T03:26:08.830Z,2.43
2023-02-12T03:28:37.870Z,2.97
2023-02-12T03:31:32.518Z,3.17
2023-02-12T03:34:14.022Z,1.97
2023-02-12T03:36:50.518Z,2.77
2023-02-12T03:39:29.106Z,4.80
2023-02-12T03:42:07.638Z,3.27
2023-02-12T03:44:37.690Z,2.83
2023-02-12T03:47:25.481Z,3.63
2023-02-12T03:50:03.871Z,2.93
2023-02-12T03:52:31.506Z,5.00
2023-02-12T03:54:58.643Z,3.17
2023-02-12T03:57:31.391Z,3.37
2023-02-12T03:59:59.170Z,2.47
2023-02-12T04:02:27.130Z,2.70
2023-02-12T04:04:54.173Z,3.10
2023-02-12T04:07:21.512Z,2.63
2023-02-12T04:09:48.723Z,2.23
2023-02-12T04:12:27.982Z,4.43
2023-02-12T04:14:58.026Z,3.47
2023-02-12T04:17:25.272Z,4.63
2023-02-12T04:20:14.484Z,38.87
2023-02-12T04:23:06.005Z,11.07
2023-02-12T04:25:42.584Z,4.97
2023-02-12T04:28:39.275Z,3.33
2023-02-12T04:31:12.331Z,2.40
2023-02-12T04:33:47.320Z,6.70
2023-02-12T04:36:22.050Z,3.47
2023-02-12T04:38:55.943Z,4.30
2023-02-12T04:41:23.056Z,5.70
2023-02-12T04:43:50.328Z,3.23
2023-02-12T04:46:17.354Z,2.13
2023-02-12T04:49:01.623Z,1.97
2023-02-12T04:51:28.659Z,3.27
2023-02-12T04:53:56.156Z,6.30
2023-02-12T04:56:23.182Z,2.63
2023-02-12T04:58:50.493Z,3.80
2023-02-12T05:01:17.511Z,2.70
2023-02-12T05:03:44.752Z,4.70
2023-02-12T05:06:11.687Z,3.87
2023-02-12T05:08:39.202Z,3.37
2023-02-12T05:11:08.390Z,4.53
2023-02-12T05:13:36.197Z,4.37
2023-02-12T05:16:07.561Z,3.53
2023-02-12T05:18:35.516Z,6.53
2023-02-12T05:21:04.993Z,3.10
2023-02-12T05:23:34.901Z,2.30
2023-02-12T05:26:04.328Z,4.13
2023-02-12T05:28:31.895Z,2.80
2023-02-12T05:31:03.813Z,2.47
2023-02-12T05:33:31.683Z,4.20
2023-02-12T05:36:11.010Z,4.83
2023-02-12T05:38:38.497Z,2.30
2023-02-12T05:41:08.262Z,3.97
2023-02-12T05:43:35.691Z,3.53
2023-02-12T05:46:04.305Z,4.77
2023-02-12T05:48:32.281Z,4.43
2023-02-12T05:51:21.859Z,6.10
2023-02-12T05:53:50.720Z,6.33
2023-02-12T05:56:21.569Z,6.20
2023-02-12T05:58:53.675Z,9.00
2023-02-12T06:01:27.458Z,226.70
2023-02-12T06:03:55.177Z,246.17
2023-02-12T06:06:22.205Z,61.33
2023-02-12T06:08:49.952Z,236.37
2023-02-12T06:11:17.653Z,207.53
2023-02-12T06:13:45.328Z,12.90
2023-02-12T06:16:27.550Z,17.00
2023-02-12T06:18:56.147Z,5.27
2023-02-12T06:21:24.247Z,4.07
2023-02-12T06:23:52.273Z,4.63
2023-02-12T06:26:19.879Z,4.87
2023-02-12T06:28:47.420Z,12.13
2023-02-12T06:31:19.018Z,5.23
2023-02-12T06:33:46.641Z,6.03
2023-02-12T06:36:13.787Z,5.13
2023-02-12T06:38:41.259Z,8.03
2023-02-12T06:41:08.459Z,4.10
2023-02-12T06:43:36.204Z,5.10
2023-02-12T06:46:04.496Z,5.57
2023-02-12T06:48:32.488Z,5.43
2023-02-12T06:51:06.993Z,2.83
2023-02-12T06:53:35.198Z,4.53
2023-02-12T06:56:04.043Z,5.70
2023-02-12T06:58:31.664Z,6.77
2023-02-12T07:01:18.125Z,5.17
2023-02-12T07:04:03.973Z,4.97
2023-02-12T07:06:32.363Z,5.13
2023-02-12T07:08:59.736Z,5.37
2023-02-12T07:11:28.911Z,5.30
2023-02-12T07:13:56.504Z,9.60
2023-02-12T07:16:23.952Z,5.83
2023-02-12T07:18:51.664Z,3.83
2023-02-12T07:21:20.121Z,4.20
2023-02-12T07:23:52.159Z,4.37
2023-02-12T07:26:20.949Z,4.10
2023-02-12T07:28:48.631Z,2.77
2023-02-12T07:31:21.475Z,12.40
2023-02-12T07:33:49.458Z,2.90
2023-02-12T07:36:20.640Z,10.13
2023-02-12T07:38:48.261Z,10.40
2023-02-12T07:41:20.542Z,7.80
2023-02-12T07:43:49.554Z,4.30
2023-02-12T07:46:21.455Z,8.37
2023-02-12T07:48:48.991Z,3.30
2023-02-12T07:51:19.315Z,9.50
2023-02-12T07:53:46.694Z,7.60
2023-02-12T07:56:19.515Z,6.57
2023-02-12T07:58:48.467Z,5.40
2023-02-12T08:01:21.508Z,15.20
2023-02-12T08:03:50.191Z,15.43
2023-02-12T08:06:23.508Z,14.93
2023-02-12T08:08:51.809Z,13.77
2023-02-12T08:11:18.971Z,5.73
2023-02-12T08:13:46.727Z,6.00
2023-02-12T08:16:16.920Z,5.87
2023-02-12T08:18:45.552Z,5.20
2023-02-12T08:21:18.284Z,3.77
2023-02-12T08:23:45.884Z,4.93
2023-02-12T08:26:15.434Z,4.03
2023-02-12T08:28:47.971Z,3.77
2023-02-12T08:31:17.888Z,4.40
2023-02-12T08:33:48.692Z,4.97
2023-02-12T08:36:18.425Z,3.00
2023-02-12T08:38:46.818Z,6.10
2023-02-12T08:41:24.695Z,7.73
2023-02-12T08:43:59.455Z,4.53
2023-02-12T08:46:28.866Z,4.83
2023-02-12T08:49:01.327Z,6.70
2023-02-12T08:51:31.884Z,3.80
2023-02-12T08:54:01.120Z,4.37
2023-02-12T08:56:30.101Z,5.63
2023-02-12T08:58:58.599Z,3.23
2023-02-12T09:01:27.140Z,5.97
2023-02-12T09:03:54.688Z,5.60
2023-02-12T09:06:23.326Z,6.10
2023-02-12T09:08:51.434Z,4.83
2023-02-12T09:11:24.365Z,4.43
2023-02-12T09:13:52.381Z,3.83
2023-02-12T09:16:19.385Z,4.63
2023-02-12T09:18:46.794Z,4.80
2023-02-12T09:21:16.759Z,7.87
2023-02-12T09:23:44.505Z,5.87
2023-02-12T09:26:15.289Z,3.60
2023-02-12T09:28:43.101Z,4.80
2023-02-12T09:31:15.405Z,4.27
2023-02-12T09:33:43.075Z,6.30
2023-02-12T09:36:17.528Z,4.37
2023-02-12T09:38:45.200Z,2.90
2023-02-12T09:41:30.780Z,6.17
2023-02-12T09:44:22.106Z,6.27
2023-02-12T09:46:51.489Z,6.20
2023-02-12T09:49:19.150Z,4.73
2023-02-12T09:51:51.543Z,4.30
2023-02-12T09:54:23.661Z,5.23
2023-02-12T09:56:57.248Z,7.30
2023-02-12T09:59:37.801Z,7.40
2023-02-12T10:02:31.018Z,3.83
2023-02-12T10:05:01.947Z,4.97
2023-02-12T10:08:04.615Z,5.77
2023-02-12T10:10:51.930Z,4.57
2023-02-12T10:13:21.577Z,4.70
2023-02-12T10:16:00.096Z,4.70
2023-02-12T10:19:04.815Z,5.57
2023-02-12T10:21:47.783Z,4.60
2023-02-12T10:24:33.821Z,4.87
2023-02-12T10:27:14.394Z,4.97
2023-02-12T10:29:43.868Z,5.23
2023-02-12T10:32:24.698Z,7.03
2023-02-12T10:34:53.065Z,5.00
2023-02-12T10:37:36.088Z,6.27
2023-02-12T10:40:19.658Z,6.43
2023-02-12T10:42:49.831Z,6.80
2023-02-12T10:45:20.053Z,5.20
2023-02-12T10:47:51.150Z,7.90
2023-02-12T10:50:55.770Z,5.80
2023-02-12T10:53:24.699Z,5.03
2023-02-12T10:56:13.010Z,5.67
2023-02-12T10:58:43.017Z,4.63
2023-02-12T11:01:30.648Z,7.03
2023-02-12T11:04:00.123Z,6.57
2023-02-12T11:06:29.683Z,24.23
2023-02-12T11:08:58.576Z,10.17
2023-02-12T11:11:33.060Z,4.77
2023-02-12T11:14:04.244Z,6.27
2023-02-12T11:16:36.529Z,4.47
2023-02-12T11:19:11.797Z,6.67
2023-02-12T11:21:38.834Z,10.17
2023-02-12T11:24:32.247Z,10.30
2023-02-12T11:27:19.432Z,6.00
2023-02-12T11:29:51.288Z,9.63
2023-02-12T11:32:19.955Z,16.53
2023-02-12T11:35:11.288Z,6.80
2023-02-12T11:37:42.100Z,6.73
2023-02-12T11:40:24.276Z,5.50
2023-02-12T11:42:54.815Z,7.47
2023-02-12T11:45:27.580Z,5.10
2023-02-12T11:47:54.821Z,6.03
2023-02-12T11:50:30.332Z,5.47
2023-02-12T11:53:04.224Z,4.40
2023-02-12T11:55:34.094Z,3.80
2023-02-12T11:58:05.649Z,8.90
2023-02-12T12:00:38.545Z,4.17
2023-02-12T12:03:32.603Z,8.93
2023-02-12T12:06:07.002Z,7.50
2023-02-12T12:09:06.012Z,5.43
2023-02-12T12:11:33.334Z,8.80
2023-02-12T12:14:20.680Z,5.80
2023-02-12T12:17:23.388Z,9.70
2023-02-12T12:20:05.287Z,11.53
2023-02-12T12:22:41.093Z,6.50
2023-02-12T12:25:31.445Z,7.67
2023-02-12T12:28:37.256Z,8.90
2023-02-12T12:31:34.800Z,6.43
2023-02-12T12:34:20.081Z,6.60
2023-02-12T12:36:52.736Z,7.40
2023-02-12T12:39:29.891Z,6.70
2023-02-12T12:42:28.385Z,7.33
2023-02-12T12:45:30.782Z,7.00
2023-02-12T12:48:19.304Z,5.50
2023-02-12T12:51:13.861Z,8.13
2023-02-12T12:53:49.540Z,8.17
2023-02-12T12:56:44.184Z,5.77
2023-02-12T12:59:32.357Z,4.83
2023-02-12T13:02:19.632Z,9.33
2023-02-12T13:04:55.729Z,6.23
2023-02-12T13:07:29.040Z,8.50
2023-02-12T13:10:11.375Z,10.40
2023-02-12T13:12:50.486Z,7.40
2023-02-12T13:15:35.405Z,13.27
2023-02-12T13:18:05.696Z,9.67
2023-02-12T13:20:44.675Z,7.43
2023-02-12T13:23:41.349Z,6.97
2023-02-12T13:26:14.528Z,7.37
2023-02-12T13:28:55.536Z,7.47
2023-02-12T13:31:33.160Z,10.90
2023-02-12T13:34:04.862Z,11.00
2023-02-12T13:36:32.936Z,8.50
2023-02-12T13:39:07.835Z,7.40
2023-02-12T13:41:35.414Z,7.30
2023-02-12T13:44:14.622Z,6.67
2023-02-12T13:47:03.159Z,5.87
2023-02-12T13:49:42.631Z,6.73
2023-02-12T13:52:44.793Z,6.80
2023-02-12T13:55:38.721Z,8.90
2023-02-12T13:58:34.965Z,6.70
2023-02-12T14:01:08.789Z,6.73
2023-02-12T14:03:37.167Z,6.77
2023-02-12T14:06:16.134Z,6.87
2023-02-12T14:09:10.204Z,6.37
2023-02-12T14:11:49.083Z,5.70
2023-02-12T14:14:29.964Z,6.53
2023-02-12T14:16:57.472Z,4.43
2023-02-12T14:19:38.761Z,9.50
2023-02-12T14:22:32.539Z,6.00
2023-02-12T14:25:01.574Z,6.30
2023-02-12T14:27:36.293Z,5.67
2023-02-12T14:30:09.677Z,12.13
2023-02-12T14:32:46.320Z,7.60
2023-02-12T14:35:42.255Z,5.93
2023-02-12T14:38:10.179Z,5.97
2023-02-12T14:40:40.491Z,9.40
2023-02-12T14:43:33.784Z,6.53
2023-02-12T14:46:22.493Z,8.87
2023-02-12T14:49:05.935Z,6.90
2023-02-12T14:51:53.646Z,5.93
2023-02-12T14:54:41.102Z,10.13
2023-02-12T14:57:22.128Z,9.97
2023-02-12T14:59:50.606Z,9.40
2023-02-12T15:02:24.566Z,9.13
2023-02-12T15:04:54.130Z,8.43
2023-02-12T15:07:28.992Z,9.10
2023-02-12T15:10:02.879Z,11.87
2023-02-12T15:12:40.302Z,16.57
2023-02-12T15:15:30.946Z,18.33
2023-02-12T15:18:08.742Z,13.00
2023-02-12T15:20:45.230Z,9.87
2023-02-12T15:23:40.842Z,10.57
2023-02-12T15:26:14.872Z,8.47
2023-02-12T15:28:42.819Z,11.07
2023-02-12T15:31:11.033Z,9.80
2023-02-12T15:33:41.743Z,11.47
2023-02-12T15:36:11.259Z,13.10
2023-02-12T15:38:43.797Z,12.87
2023-02-12T15:41:44.751Z,10.10
2023-02-12T15:44:29.700Z,10.03
2023-02-12T15:46:58.380Z,9.43
2023-02-12T15:49:34.764Z,13.53
2023-02-12T15:52:20.680Z,15.13
2023-02-12T15:54:48.733Z,12.03
2023-02-12T15:57:22.312Z,14.93
2023-02-12T16:00:09.866Z,10.97
2023-02-12T16:02:43.207Z,16.57
2023-02-12T16:05:15.391Z,15.63
2023-02-12T16:07:42.999Z,15.57
2023-02-12T16:10:15.052Z,13.13
2023-02-12T16:12:42.755Z,16.30
2023-02-12T16:15:30.881Z,17.83
2023-02-12T16:17:59.773Z,13.33
2023-02-12T16:20:28.803Z,8.00
2023-02-12T16:22:56.795Z,13.33
2023-02-12T16:25:28.947Z,12.30
2023-02-12T16:28:04.319Z,14.10
2023-02-12T16:30:38.867Z,17.97
2023-02-12T16:33:33.606Z,24.50
2023-02-12T16:36:07.533Z,43.37
2023-02-12T16:38:44.286Z,36.87
2023-02-12T16:41:20.530Z,23.83
2023-02-12T16:43:51.108Z,16.43
2023-02-12T16:46:18.853Z,22.40
2023-02-12T16:48:51.816Z,31.43
2023-02-12T16:51:26.422Z,18.37
2023-02-12T16:53:57.649Z,19.47
2023-02-12T16:56:27.455Z,22.27
2023-02-12T16:58:58.024Z,19.50
2023-02-12T17:01:31.034Z,24.87
2023-02-12T17:03:59.574Z,26.50
2023-02-12T17:06:31.458Z,24.17
2023-02-12T17:08:59.253Z,25.60
2023-02-12T17:11:27.381Z,29.47
2023-02-12T17:13:55.541Z,31.30
2023-02-12T17:16:32.004Z,31.73
2023-02-12T17:19:00.486Z,22.87
2023-02-12T17:21:38.012Z,25.13
2023-02-12T17:24:19.989Z,23.30
2023-02-12T17:26:47.335Z,33.43
2023-02-12T17:29:14.644Z,46.53
2023-02-12T17:31:41.801Z,77.63
2023-02-12T17:34:09.208Z,109.10
2023-02-12T17:36:36.327Z,111.93
2023-02-12T17:39:05.651Z,62.07
2023-02-12T17:41:33.224Z,44.20
2023-02-12T17:44:00.499Z,39.90
2023-02-12T17:46:29.055Z,28.60
2023-02-12T17:48:57.235Z,19.57
2023-02-12T17:51:24.880Z,16.03
2023-02-12T17:53:52.728Z,28.03
2023-02-12T17:56:22.131Z,29.00
2023-02-12T17:58:49.761Z,12.77
2023-02-12T18:01:19.907Z,16.30
2023-02-12T18:03:47.677Z,12.80
2023-02-12T18:06:22.224Z,14.90
2023-02-12T18:08:49.482Z,14.07
2023-02-12T18:11:19.030Z,17.53
2023-02-12T18:13:47.372Z,17.63
2023-02-12T18:16:14.555Z,18.90
2023-02-12T18:18:42.114Z,25.93
2023-02-12T18:21:11.121Z,21.77
2023-02-12T18:23:38.764Z,22.73
2023-02-12T18:26:10.812Z,20.60
2023-02-12T18:28:38.240Z,18.07
2023-02-12T18:31:06.349Z,23.73
2023-02-12T18:33:34.551Z,32.10
2023-02-12T18:36:07.893Z,46.57
2023-02-12T18:38:36.536Z,26.33
2023-02-12T18:41:24.848Z,28.07
2023-02-12T18:43:52.606Z,56.70
2023-02-12T18:46:21.936Z,53.03
2023-02-12T18:48:49.868Z,32.37
2023-02-12T18:51:22.687Z,25.63
2023-02-12T18:54:01.641Z,22.60
2023-02-12T18:56:30.847Z,24.83
2023-02-12T18:58:59.453Z,24.07
2023-02-12T19:01:27.405Z,26.50
2023-02-12T19:03:57.329Z,26.20
2023-02-12T19:06:24.914Z,20.43
2023-02-12T19:09:00.378Z,25.60
2023-02-12T19:11:28.077Z,24.70
2023-02-12T19:13:55.839Z,26.20
2023-02-12T19:16:23.986Z,23.13
2023-02-12T19:18:54.860Z,21.97
2023-02-12T19:24:07.564Z,24.63
2023-02-12T19:26:35.851Z,25.13
2023-02-12T19:29:04.444Z,25.37
2023-02-12T19:31:35.244Z,21.57
2023-02-12T19:34:08.889Z,21.40
2023-02-12T19:36:36.867Z,24.00
2023-02-12T19:39:05.888Z,22.70
2023-02-12T19:41:40.778Z,24.10
2023-02-12T19:44:16.280Z,22.03
2023-02-12T19:46:45.662Z,20.23
2023-02-12T19:49:16.673Z,23.87
2023-02-12T19:51:44.536Z,19.03
2023-02-12T19:54:13.594Z,26.80
2023-02-12T19:56:41.007Z,22.53
2023-02-12T19:59:08.785Z,22.63
2023-02-12T20:01:35.946Z,23.93
2023-02-12T20:04:03.569Z,29.27
2023-02-12T20:06:34.252Z,22.90
2023-02-12T20:09:02.230Z,23.87
2023-02-12T20:11:32.548Z,21.70
2023-02-12T20:14:01.526Z,25.60
2023-02-12T20:16:37.549Z,27.43
2023-02-12T20:19:11.905Z,27.13
2023-02-12T20:21:39.647Z,29.47
2023-02-12T20:24:07.309Z,24.43
2023-02-12T20:26:35.264Z,25.53
2023-02-12T20:29:04.897Z,17.97
2023-02-12T20:31:34.572Z,27.53
2023-02-12T20:34:04.786Z,23.93
2023-02-12T20:36:33.782Z,26.03
2023-02-12T20:39:00.783Z,26.60
2023-02-12T20:41:28.566Z,26.50
2023-02-12T20:43:55.851Z,29.27
2023-02-12T20:46:24.713Z,28.93
2023-02-12T20:48:53.549Z,31.10
2023-02-12T20:51:22.957Z,31.07
2023-02-12T20:53:50.537Z,31.50
2023-02-12T20:56:23.015Z,32.37
2023-02-12T20:58:50.589Z,31.50
2023-02-12T21:01:31.631Z,30.67
2023-02-12T21:04:03.411Z,32.20
2023-02-12T21:06:30.886Z,32.37
2023-02-12T21:08:57.978Z,32.83
2023-02-12T21:11:26.839Z,35.47
2023-02-12T21:14:02.273Z,33.93
2023-02-12T21:16:38.206Z,36.27
2023-02-12T21:19:05.203Z,34.63
2023-02-12T21:21:35.042Z,34.17
2023-02-12T21:24:03.734Z,35.73
2023-02-12T21:26:32.938Z,38.77
2023-02-12T21:29:01.588Z,38.50
2023-02-12T21:31:31.323Z,30.30
2023-02-12T21:33:59.539Z,27.90
2023-02-12T21:36:29.400Z,31.97
2023-02-12T21:38:56.875Z,32.37
2023-02-12T21:41:26.787Z,37.17
2023-02-12T21:43:57.406Z,35.30
2023-02-12T21:46:25.410Z,31.80
2023-02-12T21:48:52.470Z,38.43
2023-02-12T21:51:25.879Z,34.83
2023-02-12T21:53:55.233Z,36.40
2023-02-12T21:56:23.556Z,43.03
2023-02-12T21:58:51.154Z,34.30
2023-02-12T22:01:32.673Z,43.70
2023-02-12T22:04:05.118Z,40.50
2023-02-12T22:06:33.568Z,41.93
2023-02-12T22:09:02.396Z,37.43
2023-02-12T22:11:29.628Z,35.70
2023-02-12T22:13:56.556Z,37.97
2023-02-12T22:16:26.122Z,49.27
2023-02-12T22:18:57.516Z,45.87
2023-02-12T22:21:26.666Z,41.23
2023-02-12T22:23:54.455Z,43.07
2023-02-12T22:26:27.274Z,44.47
2023-02-12T22:28:56.668Z,45.63
2023-02-12T22:31:29.492Z,41.00
2023-02-12T22:33:59.420Z,37.60
2023-02-12T22:36:27.697Z,45.50
2023-02-12T22:38:57.647Z,71.83
2023-02-12T22:41:26.456Z,38.93
2023-02-12T22:43:53.978Z,64.77
2023-02-12T22:46:21.452Z,45.10
2023-02-12T22:48:48.472Z,41.57
2023-02-12T22:51:24.157Z,39.97
2023-02-12T22:53:51.667Z,44.70
2023-02-12T22:56:18.984Z,48.53
2023-02-12T22:58:46.362Z,60.10
2023-02-12T23:01:15.870Z,44.40
2023-02-12T23:03:43.476Z,46.03
2023-02-12T23:06:13.515Z,92.37
2023-02-12T23:08:40.784Z,44.80
2023-02-12T23:11:08.647Z,49.70
2023-02-12T23:13:36.372Z,87.00
2023-02-12T23:16:04.309Z,43.77
2023-02-12T23:18:31.766Z,49.83
2023-02-12T23:20:59.435Z,54.03
2023-02-12T23:23:26.632Z,73.47
2023-02-12T23:25:54.719Z,45.97
2023-02-12T23:28:22.593Z,46.40
2023-02-12T23:30:51.066Z,52.33
2023-02-12T23:33:19.248Z,76.03
2023-02-12T23:35:47.791Z,48.70
2023-02-12T23:38:15.904Z,39.33
2023-02-12T23:40:43.398Z,58.47
2023-02-12T23:43:10.809Z,84.93
2023-02-12T23:45:38.362Z,41.13
2023-02-12T23:48:05.747Z,46.70
2023-02-12T23:50:33.009Z,46.00
2023-02-12T23:53:00.152Z,47.53
2023-02-12T23:55:27.449Z,76.17
2023-02-12T23:57:54.460Z,72.10
